sensor_id;sensor_type;location;lat;lon;timestamp;temperature;humidity
31769;DHT22;18342;52.132;21.048;2022-08-19T00:00:12;23.90;99.90
31769;DHT22;18342;52.132;21.048;2022-08-19T00:02:39;23.80;99.90
31769;DHT22;18342;52.132;21.048;2022-08-19T00:05:05;23.90;99.90
31769;DHT22;18342;52.132;21.048;2022-08-19T00:07:31;23.80;99.90
31769;DHT22;18342;52.132;21.048;2022-08-19T00:09:57;23.80;99.90
31769;DHT22;18342;52.132;21.048;2022-08-19T00:12:22;23.80;99.90
31769;DHT22;18342;52.132;21.048;2022-08-19T00:14:48;23.80;99.90
31769;DHT22;18342;52.132;21.048;2022-08-19T00:17:14;23.80;99.90
31769;DHT22;18342;52.132;21.048;2022-08-19T00:19:39;23.70;99.90
31769;DHT22;18342;52.132;21.048;2022-08-19T00:22:06;23.70;99.90
31769;DHT22;18342;52.132;21.048;2022-08-19T00:24:34;23.70;99.90
31769;DHT22;18342;52.132;21.048;2022-08-19T00:27:00;23.70;99.90
31769;DHT22;18342;52.132;21.048;2022-08-19T00:29:27;23.70;99.90
31769;DHT22;18342;52.132;21.048;2022-08-19T00:31:53;23.60;99.90
31769;DHT22;18342;52.132;21.048;2022-08-19T00:34:21;23.70;99.90
31769;DHT22;18342;52.132;21.048;2022-08-19T00:36:48;23.60;99.90
31769;DHT22;18342;52.132;21.048;2022-08-19T00:39:15;23.60;99.90
31769;DHT22;18342;52.132;21.048;2022-08-19T00:41:41;23.60;99.90
31769;DHT22;18342;52.132;21.048;2022-08-19T00:44:08;23.60;99.90
31769;DHT22;18342;52.132;21.048;2022-08-19T00:46:37;23.60;99.90
31769;DHT22;18342;52.132;21.048;2022-08-19T00:49:10;23.50;99.90
31769;DHT22;18342;52.132;21.048;2022-08-19T00:51:40;23.50;99.90
31769;DHT22;18342;52.132;21.048;2022-08-19T00:54:07;23.50;99.90
31769;DHT22;18342;52.132;21.048;2022-08-19T00:56:35;23.50;99.90
31769;DHT22;18342;52.132;21.048;2022-08-19T00:59:02;23.40;99.90
31769;DHT22;18342;52.132;21.048;2022-08-19T01:01:28;23.40;99.90
31769;DHT22;18342;52.132;21.048;2022-08-19T01:03:54;23.40;99.90
31769;DHT22;18342;52.132;21.048;2022-08-19T01:06:21;23.40;99.90
31769;DHT22;18342;52.132;21.048;2022-08-19T01:08:46;23.40;99.90
31769;DHT22;18342;52.132;21.048;2022-08-19T01:11:12;23.40;99.90
31769;DHT22;18342;52.132;21.048;2022-08-19T01:13:38;23.30;99.90
31769;DHT22;18342;52.132;21.048;2022-08-19T01:16:08;23.40;99.90
31769;DHT22;18342;52.132;21.048;2022-08-19T01:18:38;23.30;99.90
31769;DHT22;18342;52.132;21.048;2022-08-19T01:21:18;23.30;99.90
31769;DHT22;18342;52.132;21.048;2022-08-19T01:23:46;23.30;99.90
31769;DHT22;18342;52.132;21.048;2022-08-19T01:26:19;23.30;99.90
31769;DHT22;18342;52.132;21.048;2022-08-19T01:28:48;23.30;99.90
31769;DHT22;18342;52.132;21.048;2022-08-19T01:31:20;23.30;99.90
31769;DHT22;18342;52.132;21.048;2022-08-19T01:33:48;23.30;99.90
31769;DHT22;18342;52.132;21.048;2022-08-19T01:36:22;23.20;99.90
31769;DHT22;18342;52.132;21.048;2022-08-19T01:38:48;23.20;99.90
31769;DHT22;18342;52.132;21.048;2022-08-19T01:41:14;23.20;99.90
31769;DHT22;18342;52.132;21.048;2022-08-19T01:43:42;23.20;99.90
31769;DHT22;18342;52.132;21.048;2022-08-19T01:46:08;23.20;99.90
31769;DHT22;18342;52.132;21.048;2022-08-19T01:48:41;23.20;99.90
31769;DHT22;18342;52.132;21.048;2022-08-19T01:51:08;23.10;99.90
31769;DHT22;18342;52.132;21.048;2022-08-19T01:53:34;23.10;99.90
31769;DHT22;18342;52.132;21.048;2022-08-19T01:56:00;23.10;99.90
31769;DHT22;18342;52.132;21.048;2022-08-19T01:58:34;23.10;99.90
31769;DHT22;18342;52.132;21.048;2022-08-19T02:01:01;23.10;99.90
31769;DHT22;18342;52.132;21.048;2022-08-19T02:03:27;23.10;99.90
31769;DHT22;18342;52.132;21.048;2022-08-19T02:05:59;23.10;99.90
31769;DHT22;18342;52.132;21.048;2022-08-19T02:08:27;23.10;99.90
31769;DHT22;18342;52.132;21.048;2022-08-19T02:10:53;23.10;99.90
31769;DHT22;18342;52.132;21.048;2022-08-19T02:13:19;23.00;99.90
31769;DHT22;18342;52.132;21.048;2022-08-19T02:15:45;23.00;99.90
31769;DHT22;18342;52.132;21.048;2022-08-19T02:18:11;23.00;99.90
31769;DHT22;18342;52.132;21.048;2022-08-19T02:20:38;23.00;99.90
31769;DHT22;18342;52.132;21.048;2022-08-19T02:23:05;23.00;99.90
31769;DHT22;18342;52.132;21.048;2022-08-19T02:25:31;23.00;99.90
31769;DHT22;18342;52.132;21.048;2022-08-19T02:27:57;23.00;99.90
31769;DHT22;18342;52.132;21.048;2022-08-19T02:30:23;23.00;99.90
31769;DHT22;18342;52.132;21.048;2022-08-19T02:32:50;23.00;99.90
31769;DHT22;18342;52.132;21.048;2022-08-19T02:35:16;23.00;99.90
31769;DHT22;18342;52.132;21.048;2022-08-19T02:37:42;23.00;99.90
31769;DHT22;18342;52.132;21.048;2022-08-19T02:40:28;23.00;99.90
31769;DHT22;18342;52.132;21.048;2022-08-19T02:42:54;23.00;99.90
31769;DHT22;18342;52.132;21.048;2022-08-19T02:45:20;23.00;99.90
31769;DHT22;18342;52.132;21.048;2022-08-19T02:47:46;23.00;99.90
31769;DHT22;18342;52.132;21.048;2022-08-19T02:50:12;23.00;99.90
31769;DHT22;18342;52.132;21.048;2022-08-19T02:52:38;23.00;99.90
31769;DHT22;18342;52.132;21.048;2022-08-19T02:55:04;23.00;99.90
31769;DHT22;18342;52.132;21.048;2022-08-19T02:57:31;23.00;99.90
31769;DHT22;18342;52.132;21.048;2022-08-19T02:59:57;23.00;99.90
31769;DHT22;18342;52.132;21.048;2022-08-19T03:02:23;22.90;99.90
31769;DHT22;18342;52.132;21.048;2022-08-19T03:04:49;22.90;99.90
31769;DHT22;18342;52.132;21.048;2022-08-19T03:07:16;22.90;99.90
31769;DHT22;18342;52.132;21.048;2022-08-19T03:09:41;22.90;99.90
31769;DHT22;18342;52.132;21.048;2022-08-19T03:12:10;22.90;99.90
31769;DHT22;18342;52.132;21.048;2022-08-19T03:14:36;22.90;99.90
31769;DHT22;18342;52.132;21.048;2022-08-19T03:17:03;22.90;99.90
31769;DHT22;18342;52.132;21.048;2022-08-19T03:19:30;22.90;99.90
31769;DHT22;18342;52.132;21.048;2022-08-19T03:21:57;22.90;99.90
31769;DHT22;18342;52.132;21.048;2022-08-19T03:24:23;22.90;99.90
31769;DHT22;18342;52.132;21.048;2022-08-19T03:26:51;22.90;99.90
31769;DHT22;18342;52.132;21.048;2022-08-19T03:29:18;22.80;99.90
31769;DHT22;18342;52.132;21.048;2022-08-19T03:31:44;22.80;99.90
31769;DHT22;18342;52.132;21.048;2022-08-19T03:34:18;22.80;99.90
31769;DHT22;18342;52.132;21.048;2022-08-19T03:36:44;22.80;99.90
31769;DHT22;18342;52.132;21.048;2022-08-19T03:39:10;22.80;99.90
31769;DHT22;18342;52.132;21.048;2022-08-19T03:41:38;22.80;99.90
31769;DHT22;18342;52.132;21.048;2022-08-19T03:44:04;22.80;99.90
31769;DHT22;18342;52.132;21.048;2022-08-19T03:46:32;22.80;99.90
31769;DHT22;18342;52.132;21.048;2022-08-19T03:49:00;22.80;99.90
31769;DHT22;18342;52.132;21.048;2022-08-19T03:51:34;22.80;99.90
31769;DHT22;18342;52.132;21.048;2022-08-19T03:54:02;22.80;99.90
31769;DHT22;18342;52.132;21.048;2022-08-19T03:56:29;22.80;99.90
31769;DHT22;18342;52.132;21.048;2022-08-19T03:58:56;22.80;99.90
31769;DHT22;18342;52.132;21.048;2022-08-19T04:01:25;22.80;99.90
31769;DHT22;18342;52.132;21.048;2022-08-19T04:03:52;22.80;99.90
31769;DHT22;18342;52.132;21.048;2022-08-19T04:06:25;22.80;99.90
31769;DHT22;18342;52.132;21.048;2022-08-19T04:08:53;22.70;99.90
31769;DHT22;18342;52.132;21.048;2022-08-19T04:11:24;22.70;99.90
31769;DHT22;18342;52.132;21.048;2022-08-19T04:13:52;22.80;99.90
31769;DHT22;18342;52.132;21.048;2022-08-19T04:16:19;22.80;99.90
31769;DHT22;18342;52.132;21.048;2022-08-19T04:18:46;22.80;99.90
31769;DHT22;18342;52.132;21.048;2022-08-19T04:21:17;22.80;99.90
31769;DHT22;18342;52.132;21.048;2022-08-19T04:23:44;22.80;99.90
31769;DHT22;18342;52.132;21.048;2022-08-19T04:26:18;22.80;99.90
31769;DHT22;18342;52.132;21.048;2022-08-19T04:28:45;22.80;99.90
31769;DHT22;18342;52.132;21.048;2022-08-19T04:31:20;22.80;99.90
31769;DHT22;18342;52.132;21.048;2022-08-19T04:33:46;22.80;99.90
31769;DHT22;18342;52.132;21.048;2022-08-19T04:36:26;22.90;99.90
31769;DHT22;18342;52.132;21.048;2022-08-19T04:38:57;22.90;99.90
31769;DHT22;18342;52.132;21.048;2022-08-19T04:41:24;22.90;99.90
31769;DHT22;18342;52.132;21.048;2022-08-19T04:44:09;22.90;99.90
31769;DHT22;18342;52.132;21.048;2022-08-19T04:46:35;22.90;99.90
31769;DHT22;18342;52.132;21.048;2022-08-19T04:49:02;22.90;99.90
31769;DHT22;18342;52.132;21.048;2022-08-19T04:51:30;23.00;99.90
31769;DHT22;18342;52.132;21.048;2022-08-19T04:53:56;22.90;99.90
31769;DHT22;18342;52.132;21.048;2022-08-19T04:56:23;22.90;99.90
31769;DHT22;18342;52.132;21.048;2022-08-19T04:58:52;22.90;99.90
31769;DHT22;18342;52.132;21.048;2022-08-19T05:01:21;22.90;99.90
31769;DHT22;18342;52.132;21.048;2022-08-19T05:03:47;23.00;99.90
31769;DHT22;18342;52.132;21.048;2022-08-19T05:06:15;23.00;99.90
31769;DHT22;18342;52.132;21.048;2022-08-19T05:08:42;23.00;99.90
31769;DHT22;18342;52.132;21.048;2022-08-19T05:11:29;23.00;99.90
31769;DHT22;18342;52.132;21.048;2022-08-19T05:18:49;23.20;99.90
31769;DHT22;18342;52.132;21.048;2022-08-19T05:21:34;23.10;99.90
31769;DHT22;18342;52.132;21.048;2022-08-19T05:24:20;23.00;99.90
31769;DHT22;18342;52.132;21.048;2022-08-19T05:26:47;23.00;99.90
31769;DHT22;18342;52.132;21.048;2022-08-19T05:29:15;23.00;99.90
31769;DHT22;18342;52.132;21.048;2022-08-19T05:31:42;23.00;99.90
31769;DHT22;18342;52.132;21.048;2022-08-19T05:34:08;23.00;99.90
31769;DHT22;18342;52.132;21.048;2022-08-19T05:36:41;23.00;99.90
31769;DHT22;18342;52.132;21.048;2022-08-19T05:39:10;23.00;99.90
31769;DHT22;18342;52.132;21.048;2022-08-19T05:41:44;23.10;99.90
31769;DHT22;18342;52.132;21.048;2022-08-19T05:44:10;23.10;99.90
31769;DHT22;18342;52.132;21.048;2022-08-19T05:46:37;23.20;99.90
31769;DHT22;18342;52.132;21.048;2022-08-19T05:49:06;23.20;99.90
31769;DHT22;18342;52.132;21.048;2022-08-19T05:51:33;23.30;99.90
31769;DHT22;18342;52.132;21.048;2022-08-19T05:54:02;23.30;99.90
31769;DHT22;18342;52.132;21.048;2022-08-19T05:56:28;23.30;99.90
31769;DHT22;18342;52.132;21.048;2022-08-19T05:58:56;23.30;99.90
31769;DHT22;18342;52.132;21.048;2022-08-19T06:01:24;23.30;99.90
31769;DHT22;18342;52.132;21.048;2022-08-19T06:03:50;23.30;99.90
31769;DHT22;18342;52.132;21.048;2022-08-19T06:06:16;23.40;99.90
31769;DHT22;18342;52.132;21.048;2022-08-19T06:08:43;23.30;99.90
31769;DHT22;18342;52.132;21.048;2022-08-19T06:13:46;23.40;99.90
31769;DHT22;18342;52.132;21.048;2022-08-19T06:16:17;23.50;99.90
31769;DHT22;18342;52.132;21.048;2022-08-19T06:18:52;23.50;99.90
31769;DHT22;18342;52.132;21.048;2022-08-19T06:21:24;23.40;99.90
31769;DHT22;18342;52.132;21.048;2022-08-19T06:23:50;23.50;99.90
31769;DHT22;18342;52.132;21.048;2022-08-19T06:26:18;23.50;99.90
31769;DHT22;18342;52.132;21.048;2022-08-19T06:28:45;23.50;99.90
31769;DHT22;18342;52.132;21.048;2022-08-19T06:31:16;23.50;99.90
31769;DHT22;18342;52.132;21.048;2022-08-19T06:33:43;23.50;99.90
31769;DHT22;18342;52.132;21.048;2022-08-19T06:36:25;23.60;99.90
31769;DHT22;18342;52.132;21.048;2022-08-19T06:38:58;23.60;99.90
31769;DHT22;18342;52.132;21.048;2022-08-19T06:41:27;23.60;99.90
31769;DHT22;18342;52.132;21.048;2022-08-19T06:43:54;23.60;99.90
31769;DHT22;18342;52.132;21.048;2022-08-19T06:46:21;23.60;99.90
31769;DHT22;18342;52.132;21.048;2022-08-19T06:48:47;23.70;99.90
31769;DHT22;18342;52.132;21.048;2022-08-19T06:51:15;23.80;99.90
31769;DHT22;18342;52.132;21.048;2022-08-19T06:53:44;23.80;99.90
31769;DHT22;18342;52.132;21.048;2022-08-19T06:56:13;23.80;99.90
31769;DHT22;18342;52.132;21.048;2022-08-19T06:58:39;23.90;99.90
31769;DHT22;18342;52.132;21.048;2022-08-19T07:01:06;24.00;99.90
31769;DHT22;18342;52.132;21.048;2022-08-19T07:03:34;24.10;99.90
31769;DHT22;18342;52.132;21.048;2022-08-19T07:06:10;24.20;99.90
31769;DHT22;18342;52.132;21.048;2022-08-19T07:08:36;24.30;99.90
31769;DHT22;18342;52.132;21.048;2022-08-19T07:11:06;24.40;99.90
31769;DHT22;18342;52.132;21.048;2022-08-19T07:13:33;24.40;99.90
31769;DHT22;18342;52.132;21.048;2022-08-19T07:16:04;24.50;99.90
31769;DHT22;18342;52.132;21.048;2022-08-19T07:18:30;24.60;99.90
31769;DHT22;18342;52.132;21.048;2022-08-19T07:21:07;24.70;99.90
31769;DHT22;18342;52.132;21.048;2022-08-19T07:23:34;24.80;99.90
31769;DHT22;18342;52.132;21.048;2022-08-19T07:26:06;24.90;99.90
31769;DHT22;18342;52.132;21.048;2022-08-19T07:28:32;25.00;99.90
31769;DHT22;18342;52.132;21.048;2022-08-19T07:30:57;25.10;99.90
31769;DHT22;18342;52.132;21.048;2022-08-19T07:33:23;25.20;99.90
31769;DHT22;18342;52.132;21.048;2022-08-19T07:35:49;25.30;99.90
31769;DHT22;18342;52.132;21.048;2022-08-19T07:38:16;25.30;99.90
31769;DHT22;18342;52.132;21.048;2022-08-19T07:40:42;25.40;99.90
31769;DHT22;18342;52.132;21.048;2022-08-19T07:43:08;25.50;99.90
31769;DHT22;18342;52.132;21.048;2022-08-19T07:45:34;25.60;99.90
31769;DHT22;18342;52.132;21.048;2022-08-19T07:47:59;25.60;99.90
31769;DHT22;18342;52.132;21.048;2022-08-19T07:50:26;25.70;99.90
31769;DHT22;18342;52.132;21.048;2022-08-19T07:52:51;25.80;99.90
31769;DHT22;18342;52.132;21.048;2022-08-19T07:55:25;26.00;99.90
31769;DHT22;18342;52.132;21.048;2022-08-19T07:57:51;26.10;99.90
31769;DHT22;18342;52.132;21.048;2022-08-19T08:00:18;26.10;99.90
31769;DHT22;18342;52.132;21.048;2022-08-19T08:02:44;26.20;99.90
31769;DHT22;18342;52.132;21.048;2022-08-19T08:05:10;26.30;99.90
31769;DHT22;18342;52.132;21.048;2022-08-19T08:07:54;26.30;99.90
31769;DHT22;18342;52.132;21.048;2022-08-19T08:10:39;26.40;99.90
31769;DHT22;18342;52.132;21.048;2022-08-19T08:13:05;26.60;99.90
31769;DHT22;18342;52.132;21.048;2022-08-19T08:15:31;26.60;99.90
31769;DHT22;18342;52.132;21.048;2022-08-19T08:17:57;26.70;99.90
31769;DHT22;18342;52.132;21.048;2022-08-19T08:20:23;26.80;99.90
31769;DHT22;18342;52.132;21.048;2022-08-19T08:22:49;26.90;99.90
31769;DHT22;18342;52.132;21.048;2022-08-19T08:25:34;27.10;99.90
31769;DHT22;18342;52.132;21.048;2022-08-19T08:28:00;27.20;99.90
31769;DHT22;18342;52.132;21.048;2022-08-19T08:30:28;27.20;99.90
31769;DHT22;18342;52.132;21.048;2022-08-19T08:32:53;27.30;99.90
31769;DHT22;18342;52.132;21.048;2022-08-19T08:35:21;27.30;99.90
31769;DHT22;18342;52.132;21.048;2022-08-19T08:37:49;27.40;99.90
31769;DHT22;18342;52.132;21.048;2022-08-19T08:43:11;27.70;99.90
31769;DHT22;18342;52.132;21.048;2022-08-19T08:45:46;27.70;99.90
31769;DHT22;18342;52.132;21.048;2022-08-19T08:48:20;27.90;99.90
31769;DHT22;18342;52.132;21.048;2022-08-19T08:50:50;28.00;99.90
31769;DHT22;18342;52.132;21.048;2022-08-19T08:53:19;28.20;99.90
31769;DHT22;18342;52.132;21.048;2022-08-19T08:55:46;28.30;99.90
31769;DHT22;18342;52.132;21.048;2022-08-19T08:59:18;28.40;99.90
31769;DHT22;18342;52.132;21.048;2022-08-19T09:01:11;28.50;99.90
31769;DHT22;18342;52.132;21.048;2022-08-19T09:03:39;28.60;99.90
31769;DHT22;18342;52.132;21.048;2022-08-19T09:09:00;28.90;99.90
31769;DHT22;18342;52.132;21.048;2022-08-19T09:14:16;29.10;99.90
31769;DHT22;18342;52.132;21.048;2022-08-19T09:16:43;29.20;99.90
31769;DHT22;18342;52.132;21.048;2022-08-19T09:19:09;29.30;99.90
31769;DHT22;18342;52.132;21.048;2022-08-19T09:21:36;29.30;99.90
31769;DHT22;18342;52.132;21.048;2022-08-19T09:24:04;29.40;99.90
31769;DHT22;18342;52.132;21.048;2022-08-19T09:26:32;29.50;99.90
31769;DHT22;18342;52.132;21.048;2022-08-19T09:28:58;29.60;99.90
31769;DHT22;18342;52.132;21.048;2022-08-19T09:31:27;29.70;99.90
31769;DHT22;18342;52.132;21.048;2022-08-19T09:33:53;29.80;99.90
31769;DHT22;18342;52.132;21.048;2022-08-19T09:36:23;29.90;99.90
31769;DHT22;18342;52.132;21.048;2022-08-19T09:38:51;30.00;99.90
31769;DHT22;18342;52.132;21.048;2022-08-19T09:41:21;30.10;99.90
31769;DHT22;18342;52.132;21.048;2022-08-19T09:43:50;30.20;99.90
31769;DHT22;18342;52.132;21.048;2022-08-19T09:46:19;30.20;99.90
31769;DHT22;18342;52.132;21.048;2022-08-19T09:48:47;30.30;99.90
31769;DHT22;18342;52.132;21.048;2022-08-19T09:51:15;30.40;99.90
31769;DHT22;18342;52.132;21.048;2022-08-19T09:53:44;30.50;99.90
31769;DHT22;18342;52.132;21.048;2022-08-19T09:56:11;30.50;99.90
31769;DHT22;18342;52.132;21.048;2022-08-19T09:58:37;30.50;99.90
31769;DHT22;18342;52.132;21.048;2022-08-19T10:01:05;30.50;99.90
31769;DHT22;18342;52.132;21.048;2022-08-19T10:03:33;30.60;99.90
31769;DHT22;18342;52.132;21.048;2022-08-19T10:06:01;30.60;99.90
31769;DHT22;18342;52.132;21.048;2022-08-19T10:08:35;30.60;99.90
31769;DHT22;18342;52.132;21.048;2022-08-19T10:11:03;30.70;99.90
31769;DHT22;18342;52.132;21.048;2022-08-19T10:13:31;30.70;99.90
31769;DHT22;18342;52.132;21.048;2022-08-19T10:16:08;30.70;99.90
31769;DHT22;18342;52.132;21.048;2022-08-19T10:18:36;30.90;99.90
31769;DHT22;18342;52.132;21.048;2022-08-19T10:21:14;30.90;99.90
31769;DHT22;18342;52.132;21.048;2022-08-19T10:23:42;30.90;99.90
31769;DHT22;18342;52.132;21.048;2022-08-19T10:26:14;31.00;99.90
31769;DHT22;18342;52.132;21.048;2022-08-19T10:28:40;31.00;99.90
31769;DHT22;18342;52.132;21.048;2022-08-19T10:31:14;31.00;99.90
31769;DHT22;18342;52.132;21.048;2022-08-19T10:33:41;31.00;99.90
31769;DHT22;18342;52.132;21.048;2022-08-19T10:36:13;31.00;99.90
31769;DHT22;18342;52.132;21.048;2022-08-19T10:38:43;31.10;99.90
31769;DHT22;18342;52.132;21.048;2022-08-19T10:41:13;31.10;99.90
31769;DHT22;18342;52.132;21.048;2022-08-19T10:43:40;31.10;99.90
31769;DHT22;18342;52.132;21.048;2022-08-19T10:46:08;31.10;99.90
31769;DHT22;18342;52.132;21.048;2022-08-19T10:48:35;31.20;99.90
31769;DHT22;18342;52.132;21.048;2022-08-19T10:51:01;31.20;99.90
31769;DHT22;18342;52.132;21.048;2022-08-19T10:53:46;31.20;99.90
31769;DHT22;18342;52.132;21.048;2022-08-19T10:56:12;31.20;99.90
31769;DHT22;18342;52.132;21.048;2022-08-19T10:58:57;31.20;99.90
31769;DHT22;18342;52.132;21.048;2022-08-19T11:01:23;31.20;99.90
31769;DHT22;18342;52.132;21.048;2022-08-19T11:03:49;31.30;99.90
31769;DHT22;18342;52.132;21.048;2022-08-19T11:06:15;31.30;99.90
31769;DHT22;18342;52.132;21.048;2022-08-19T11:08:40;31.30;99.90
31769;DHT22;18342;52.132;21.048;2022-08-19T11:11:07;31.20;99.90
31769;DHT22;18342;52.132;21.048;2022-08-19T11:13:37;31.20;99.90
31769;DHT22;18342;52.132;21.048;2022-08-19T11:16:09;31.20;99.90
31769;DHT22;18342;52.132;21.048;2022-08-19T11:18:37;31.10;99.90
31769;DHT22;18342;52.132;21.048;2022-08-19T11:21:12;31.00;99.90
31769;DHT22;18342;52.132;21.048;2022-08-19T11:23:38;31.00;99.90
31769;DHT22;18342;52.132;21.048;2022-08-19T11:26:03;31.10;99.90
31769;DHT22;18342;52.132;21.048;2022-08-19T11:28:29;31.00;99.90
31769;DHT22;18342;52.132;21.048;2022-08-19T11:30:55;31.00;99.90
31769;DHT22;18342;52.132;21.048;2022-08-19T11:33:20;31.10;99.90
31769;DHT22;18342;52.132;21.048;2022-08-19T11:35:46;31.00;99.90
31769;DHT22;18342;52.132;21.048;2022-08-19T11:38:12;31.00;99.90
31769;DHT22;18342;52.132;21.048;2022-08-19T11:40:38;31.00;99.90
31769;DHT22;18342;52.132;21.048;2022-08-19T11:43:05;30.90;99.90
31769;DHT22;18342;52.132;21.048;2022-08-19T11:45:31;30.90;99.90
31769;DHT22;18342;52.132;21.048;2022-08-19T11:47:57;30.80;99.90
31769;DHT22;18342;52.132;21.048;2022-08-19T11:50:23;30.80;99.90
31769;DHT22;18342;52.132;21.048;2022-08-19T11:52:50;30.80;99.90
31769;DHT22;18342;52.132;21.048;2022-08-19T11:55:19;30.70;99.90
31769;DHT22;18342;52.132;21.048;2022-08-19T11:57:45;30.70;99.90
31769;DHT22;18342;52.132;21.048;2022-08-19T12:00:12;30.70;99.90
31769;DHT22;18342;52.132;21.048;2022-08-19T12:02:38;30.70;99.90
31769;DHT22;18342;52.132;21.048;2022-08-19T12:05:05;30.70;99.90
31769;DHT22;18342;52.132;21.048;2022-08-19T12:07:31;30.70;99.90
31769;DHT22;18342;52.132;21.048;2022-08-19T12:09:59;30.60;99.90
31769;DHT22;18342;52.132;21.048;2022-08-19T12:12:25;30.60;99.90
31769;DHT22;18342;52.132;21.048;2022-08-19T12:14:52;30.50;99.90
31769;DHT22;18342;52.132;21.048;2022-08-19T12:17:26;30.50;99.90
31769;DHT22;18342;52.132;21.048;2022-08-19T12:19:52;30.50;99.90
31769;DHT22;18342;52.132;21.048;2022-08-19T12:22:18;30.40;99.90
31769;DHT22;18342;52.132;21.048;2022-08-19T12:24:44;30.50;99.90
31769;DHT22;18342;52.132;21.048;2022-08-19T12:27:10;30.40;99.90
31769;DHT22;18342;52.132;21.048;2022-08-19T12:29:35;30.40;99.90
31769;DHT22;18342;52.132;21.048;2022-08-19T12:32:02;30.50;99.90
31769;DHT22;18342;52.132;21.048;2022-08-19T12:34:29;30.50;99.90
31769;DHT22;18342;52.132;21.048;2022-08-19T12:37:01;30.50;99.90
31769;DHT22;18342;52.132;21.048;2022-08-19T12:39:27;30.50;99.90
31769;DHT22;18342;52.132;21.048;2022-08-19T12:41:53;30.50;99.90
31769;DHT22;18342;52.132;21.048;2022-08-19T12:44:19;30.50;99.90
31769;DHT22;18342;52.132;21.048;2022-08-19T12:46:46;30.50;99.90
31769;DHT22;18342;52.132;21.048;2022-08-19T12:49:12;30.50;99.90
31769;DHT22;18342;52.132;21.048;2022-08-19T12:51:37;30.50;99.90
31769;DHT22;18342;52.132;21.048;2022-08-19T12:54:03;30.50;99.90
31769;DHT22;18342;52.132;21.048;2022-08-19T12:56:30;30.50;99.90
31769;DHT22;18342;52.132;21.048;2022-08-19T12:58:56;30.40;99.90
31769;DHT22;18342;52.132;21.048;2022-08-19T13:01:22;30.50;99.90
31769;DHT22;18342;52.132;21.048;2022-08-19T13:03:47;30.40;99.90
31769;DHT22;18342;52.132;21.048;2022-08-19T13:06:13;30.40;99.90
31769;DHT22;18342;52.132;21.048;2022-08-19T13:08:40;30.40;99.90
31769;DHT22;18342;52.132;21.048;2022-08-19T13:11:12;30.30;99.90
31769;DHT22;18342;52.132;21.048;2022-08-19T13:13:43;30.30;99.90
31769;DHT22;18342;52.132;21.048;2022-08-19T13:16:10;30.30;99.90
31769;DHT22;18342;52.132;21.048;2022-08-19T13:18:37;30.40;99.90
31769;DHT22;18342;52.132;21.048;2022-08-19T13:21:04;30.30;99.90
31769;DHT22;18342;52.132;21.048;2022-08-19T13:23:32;30.30;99.90
31769;DHT22;18342;52.132;21.048;2022-08-19T13:26:02;30.20;99.90
31769;DHT22;18342;52.132;21.048;2022-08-19T13:28:30;30.20;99.90
31769;DHT22;18342;52.132;21.048;2022-08-19T13:31:20;30.20;99.90
31769;DHT22;18342;52.132;21.048;2022-08-19T13:34:04;30.20;99.90
31769;DHT22;18342;52.132;21.048;2022-08-19T13:36:32;30.30;99.90
31769;DHT22;18342;52.132;21.048;2022-08-19T13:38:57;30.40;99.80
31769;DHT22;18342;52.132;21.048;2022-08-19T13:41:24;30.30;99.90
31769;DHT22;18342;52.132;21.048;2022-08-19T13:43:50;30.30;99.90
31769;DHT22;18342;52.132;21.048;2022-08-19T13:46:15;30.30;99.80
31769;DHT22;18342;52.132;21.048;2022-08-19T13:48:42;30.30;99.40
31769;DHT22;18342;52.132;21.048;2022-08-19T13:51:08;30.30;99.00
31769;DHT22;18342;52.132;21.048;2022-08-19T13:53:37;30.30;99.10
31769;DHT22;18342;52.132;21.048;2022-08-19T13:56:07;30.20;99.30
31769;DHT22;18342;52.132;21.048;2022-08-19T13:58:33;30.20;99.00
31769;DHT22;18342;52.132;21.048;2022-08-19T14:00:59;30.20;99.30
31769;DHT22;18342;52.132;21.048;2022-08-19T14:03:25;30.30;99.10
31769;DHT22;18342;52.132;21.048;2022-08-19T14:05:51;30.20;99.40
31769;DHT22;18342;52.132;21.048;2022-08-19T14:08:17;30.20;98.90
31769;DHT22;18342;52.132;21.048;2022-08-19T14:10:44;30.20;99.10
31769;DHT22;18342;52.132;21.048;2022-08-19T14:13:14;30.20;98.60
31769;DHT22;18342;52.132;21.048;2022-08-19T14:15:40;30.20;98.60
31769;DHT22;18342;52.132;21.048;2022-08-19T14:18:05;30.20;98.30
31769;DHT22;18342;52.132;21.048;2022-08-19T14:20:36;30.20;97.80
31769;DHT22;18342;52.132;21.048;2022-08-19T14:23:03;30.20;97.90
31769;DHT22;18342;52.132;21.048;2022-08-19T14:25:31;30.20;97.60
31769;DHT22;18342;52.132;21.048;2022-08-19T14:27:57;30.20;97.70
31769;DHT22;18342;52.132;21.048;2022-08-19T14:30:26;30.20;98.00
31769;DHT22;18342;52.132;21.048;2022-08-19T14:32:56;30.20;98.60
31769;DHT22;18342;52.132;21.048;2022-08-19T14:35:22;30.20;98.00
31769;DHT22;18342;52.132;21.048;2022-08-19T14:37:49;30.20;97.90
31769;DHT22;18342;52.132;21.048;2022-08-19T14:40:18;30.20;98.30
31769;DHT22;18342;52.132;21.048;2022-08-19T14:42:48;30.20;98.30
31769;DHT22;18342;52.132;21.048;2022-08-19T14:45:14;30.20;97.90
31769;DHT22;18342;52.132;21.048;2022-08-19T14:47:39;30.20;97.50
31769;DHT22;18342;52.132;21.048;2022-08-19T14:50:07;30.20;97.40
31769;DHT22;18342;52.132;21.048;2022-08-19T14:52:33;30.20;96.70
31769;DHT22;18342;52.132;21.048;2022-08-19T14:54:59;30.20;97.10
31769;DHT22;18342;52.132;21.048;2022-08-19T14:57:25;30.10;97.40
31769;DHT22;18342;52.132;21.048;2022-08-19T14:59:50;30.10;97.30
31769;DHT22;18342;52.132;21.048;2022-08-19T15:02:16;30.10;97.70
31769;DHT22;18342;52.132;21.048;2022-08-19T15:04:42;30.10;97.50
31769;DHT22;18342;52.132;21.048;2022-08-19T15:07:08;30.00;97.40
31769;DHT22;18342;52.132;21.048;2022-08-19T15:09:34;30.00;97.70
31769;DHT22;18342;52.132;21.048;2022-08-19T15:12:00;30.00;97.50
31769;DHT22;18342;52.132;21.048;2022-08-19T15:14:27;30.00;97.60
31769;DHT22;18342;52.132;21.048;2022-08-19T15:16:53;30.00;97.40
31769;DHT22;18342;52.132;21.048;2022-08-19T15:19:19;30.00;97.50
31769;DHT22;18342;52.132;21.048;2022-08-19T15:21:45;30.00;97.60
31769;DHT22;18342;52.132;21.048;2022-08-19T15:24:10;30.00;97.70
31769;DHT22;18342;52.132;21.048;2022-08-19T15:26:36;29.90;97.90
31769;DHT22;18342;52.132;21.048;2022-08-19T15:29:03;30.00;97.70
31769;DHT22;18342;52.132;21.048;2022-08-19T15:31:30;29.90;97.90
31769;DHT22;18342;52.132;21.048;2022-08-19T15:34:01;29.90;97.80
31769;DHT22;18342;52.132;21.048;2022-08-19T15:36:28;29.90;98.10